sensor_id;sensor_type;location;lat;lon;timestamp;temperature;humidity
17956;DHT22;27666;51.498;11.966;2023-07-31T00:00:50;18.90;99.90
17956;DHT22;27666;51.498;11.966;2023-07-31T00:03:37;18.90;99.90
17956;DHT22;27666;51.498;11.966;2023-07-31T00:06:23;18.90;99.90
17956;DHT22;27666;51.498;11.966;2023-07-31T00:09:09;18.90;99.90
17956;DHT22;27666;51.498;11.966;2023-07-31T00:11:56;18.90;99.90
17956;DHT22;27666;51.498;11.966;2023-07-31T00:14:43;18.90;99.90
17956;DHT22;27666;51.498;11.966;2023-07-31T00:17:31;18.90;99.90
17956;DHT22;27666;51.498;11.966;2023-07-31T00:20:18;18.90;99.90
17956;DHT22;27666;51.498;11.966;2023-07-31T00:23:04;19.00;99.90
17956;DHT22;27666;51.498;11.966;2023-07-31T00:25:51;19.10;99.90
17956;DHT22;27666;51.498;11.966;2023-07-31T00:28:38;19.10;99.90
17956;DHT22;27666;51.498;11.966;2023-07-31T00:31:25;19.10;99.90
17956;DHT22;27666;51.498;11.966;2023-07-31T00:34:13;19.20;99.90
17956;DHT22;27666;51.498;11.966;2023-07-31T00:36:59;19.20;99.90
17956;DHT22;27666;51.498;11.966;2023-07-31T00:39:46;19.30;99.90
17956;DHT22;27666;51.498;11.966;2023-07-31T00:42:32;19.20;99.90
17956;DHT22;27666;51.498;11.966;2023-07-31T00:45:19;19.20;99.90
17956;DHT22;27666;51.498;11.966;2023-07-31T00:48:05;19.30;99.90
17956;DHT22;27666;51.498;11.966;2023-07-31T00:50:54;19.30;99.90
17956;DHT22;27666;51.498;11.966;2023-07-31T00:53:40;19.20;99.90
17956;DHT22;27666;51.498;11.966;2023-07-31T00:56:29;19.20;99.90
17956;DHT22;27666;51.498;11.966;2023-07-31T00:59:15;19.20;99.90
17956;DHT22;27666;51.498;11.966;2023-07-31T01:02:04;19.20;99.90
17956;DHT22;27666;51.498;11.966;2023-07-31T01:04:51;19.20;99.90
17956;DHT22;27666;51.498;11.966;2023-07-31T01:07:47;19.20;99.90
17956;DHT22;27666;51.498;11.966;2023-07-31T01:10:41;19.20;99.90
17956;DHT22;27666;51.498;11.966;2023-07-31T01:13:31;19.20;99.90
17956;DHT22;27666;51.498;11.966;2023-07-31T01:16:18;19.20;99.90
17956;DHT22;27666;51.498;11.966;2023-07-31T01:19:05;19.10;99.90
17956;DHT22;27666;51.498;11.966;2023-07-31T01:22:16;19.20;99.90
17956;DHT22;27666;51.498;11.966;2023-07-31T01:25:20;19.10;99.90
17956;DHT22;27666;51.498;11.966;2023-07-31T01:28:19;19.20;99.90
17956;DHT22;27666;51.498;11.966;2023-07-31T01:31:07;19.20;99.90
17956;DHT22;27666;51.498;11.966;2023-07-31T01:34:00;19.20;99.90
17956;DHT22;27666;51.498;11.966;2023-07-31T01:36:47;19.20;99.90
17956;DHT22;27666;51.498;11.966;2023-07-31T01:39:35;19.20;99.90
17956;DHT22;27666;51.498;11.966;2023-07-31T01:42:21;19.20;99.90
17956;DHT22;27666;51.498;11.966;2023-07-31T01:45:10;19.10;99.90
17956;DHT22;27666;51.498;11.966;2023-07-31T01:47:57;19.20;99.90
17956;DHT22;27666;51.498;11.966;2023-07-31T01:50:43;19.20;99.90
17956;DHT22;27666;51.498;11.966;2023-07-31T01:53:31;19.20;99.90
17956;DHT22;27666;51.498;11.966;2023-07-31T01:56:18;19.20;99.90
17956;DHT22;27666;51.498;11.966;2023-07-31T01:59:05;19.10;99.90
17956;DHT22;27666;51.498;11.966;2023-07-31T02:01:53;19.10;99.90
17956;DHT22;27666;51.498;11.966;2023-07-31T02:04:39;19.10;99.90
17956;DHT22;27666;51.498;11.966;2023-07-31T02:07:26;19.10;99.90
17956;DHT22;27666;51.498;11.966;2023-07-31T02:10:12;19.10;99.90
17956;DHT22;27666;51.498;11.966;2023-07-31T02:12:59;19.00;99.90
17956;DHT22;27666;51.498;11.966;2023-07-31T02:15:48;19.00;99.90
17956;DHT22;27666;51.498;11.966;2023-07-31T02:18:37;19.00;99.90
17956;DHT22;27666;51.498;11.966;2023-07-31T02:21:23;18.90;99.90
17956;DHT22;27666;51.498;11.966;2023-07-31T02:24:10;18.90;99.90
17956;DHT22;27666;51.498;11.966;2023-07-31T02:26:57;18.80;99.90
17956;DHT22;27666;51.498;11.966;2023-07-31T02:29:43;18.80;99.90
17956;DHT22;27666;51.498;11.966;2023-07-31T02:32:31;18.80;99.90
17956;DHT22;27666;51.498;11.966;2023-07-31T02:35:19;18.80;99.90
17956;DHT22;27666;51.498;11.966;2023-07-31T02:38:05;18.80;99.90
17956;DHT22;27666;51.498;11.966;2023-07-31T02:40:52;18.70;99.90
17956;DHT22;27666;51.498;11.966;2023-07-31T02:43:40;18.70;99.90
17956;DHT22;27666;51.498;11.966;2023-07-31T02:46:26;18.70;99.90
17956;DHT22;27666;51.498;11.966;2023-07-31T02:49:13;18.70;99.90
17956;DHT22;27666;51.498;11.966;2023-07-31T02:52:01;18.70;99.90
17956;DHT22;27666;51.498;11.966;2023-07-31T02:54:47;18.80;99.90
17956;DHT22;27666;51.498;11.966;2023-07-31T02:57:34;18.70;99.90
17956;DHT22;27666;51.498;11.966;2023-07-31T03:00:21;18.70;99.90
17956;DHT22;27666;51.498;11.966;2023-07-31T03:03:07;18.70;99.90
17956;DHT22;27666;51.498;11.966;2023-07-31T03:05:54;18.70;99.90
17956;DHT22;27666;51.498;11.966;2023-07-31T03:08:42;18.70;99.90
17956;DHT22;27666;51.498;11.966;2023-07-31T03:11:28;18.70;99.90
17956;DHT22;27666;51.498;11.966;2023-07-31T03:14:15;18.70;99.90
17956;DHT22;27666;51.498;11.966;2023-07-31T03:17:03;18.80;99.90
17956;DHT22;27666;51.498;11.966;2023-07-31T03:19:49;18.80;99.90
17956;DHT22;27666;51.498;11.966;2023-07-31T03:22:36;18.80;99.90
17956;DHT22;27666;51.498;11.966;2023-07-31T03:25:24;18.80;99.90
17956;DHT22;27666;51.498;11.966;2023-07-31T03:28:11;18.80;99.90
17956;DHT22;27666;51.498;11.966;2023-07-31T03:30:58;18.80;99.90
17956;DHT22;27666;51.498;11.966;2023-07-31T03:33:45;18.70;99.90
17956;DHT22;27666;51.498;11.966;2023-07-31T03:36:31;18.70;99.90
17956;DHT22;27666;51.498;11.966;2023-07-31T03:39:18;18.80;99.90
17956;DHT22;27666;51.498;11.966;2023-07-31T03:42:06;18.80;99.90
17956;DHT22;27666;51.498;11.966;2023-07-31T03:44:53;18.80;99.90
17956;DHT22;27666;51.498;11.966;2023-07-31T03:47:39;18.70;99.90
17956;DHT22;27666;51.498;11.966;2023-07-31T03:50:26;18.70;99.90
17956;DHT22;27666;51.498;11.966;2023-07-31T03:53:12;18.70;99.90
17956;DHT22;27666;51.498;11.966;2023-07-31T03:55:59;18.70;99.90
17956;DHT22;27666;51.498;11.966;2023-07-31T03:58:47;18.70;99.90
17956;DHT22;27666;51.498;11.966;2023-07-31T04:01:33;18.70;99.90
17956;DHT22;27666;51.498;11.966;2023-07-31T04:04:19;18.70;99.90
17956;DHT22;27666;51.498;11.966;2023-07-31T04:07:06;18.70;99.90
17956;DHT22;27666;51.498;11.966;2023-07-31T04:09:52;18.60;99.90
17956;DHT22;27666;51.498;11.966;2023-07-31T04:12:39;18.70;99.90
17956;DHT22;27666;51.498;11.966;2023-07-31T04:15:26;18.70;99.90
17956;DHT22;27666;51.498;11.966;2023-07-31T04:18:13;19.00;99.90
17956;DHT22;27666;51.498;11.966;2023-07-31T04:20:59;19.40;99.90
17956;DHT22;27666;51.498;11.966;2023-07-31T04:23:47;19.70;99.90
17956;DHT22;27666;51.498;11.966;2023-07-31T04:26:34;19.70;99.90
17956;DHT22;27666;51.498;11.966;2023-07-31T04:29:21;19.50;99.90
17956;DHT22;27666;51.498;11.966;2023-07-31T04:32:09;19.20;99.90
17956;DHT22;27666;51.498;11.966;2023-07-31T04:34:56;19.10;99.90
17956;DHT22;27666;51.498;11.966;2023-07-31T04:37:42;19.00;99.90
17956;DHT22;27666;51.498;11.966;2023-07-31T04:40:29;18.80;99.90
17956;DHT22;27666;51.498;11.966;2023-07-31T04:43:16;18.70;99.90
17956;DHT22;27666;51.498;11.966;2023-07-31T04:46:03;18.60;99.90
17956;DHT22;27666;51.498;11.966;2023-07-31T04:48:50;18.60;99.90
17956;DHT22;27666;51.498;11.966;2023-07-31T04:51:37;18.50;99.90
17956;DHT22;27666;51.498;11.966;2023-07-31T04:54:24;18.50;99.90
17956;DHT22;27666;51.498;11.966;2023-07-31T04:57:11;18.40;99.90
17956;DHT22;27666;51.498;11.966;2023-07-31T04:59:58;18.40;99.90
17956;DHT22;27666;51.498;11.966;2023-07-31T05:02:44;18.40;99.90
17956;DHT22;27666;51.498;11.966;2023-07-31T05:05:32;18.40;99.90
17956;DHT22;27666;51.498;11.966;2023-07-31T05:08:19;18.40;99.90
17956;DHT22;27666;51.498;11.966;2023-07-31T05:11:05;18.40;99.90
17956;DHT22;27666;51.498;11.966;2023-07-31T05:13:51;18.40;99.90
17956;DHT22;27666;51.498;11.966;2023-07-31T05:16:38;18.40;99.90
17956;DHT22;27666;51.498;11.966;2023-07-31T05:19:25;18.40;99.90
17956;DHT22;27666;51.498;11.966;2023-07-31T05:22:13;18.30;99.90
17956;DHT22;27666;51.498;11.966;2023-07-31T05:25:01;18.30;99.90
17956;DHT22;27666;51.498;11.966;2023-07-31T05:27:48;18.20;99.90
17956;DHT22;27666;51.498;11.966;2023-07-31T05:30:35;18.20;99.90
17956;DHT22;27666;51.498;11.966;2023-07-31T05:33:21;18.20;99.90
17956;DHT22;27666;51.498;11.966;2023-07-31T05:36:08;18.20;99.90
17956;DHT22;27666;51.498;11.966;2023-07-31T05:38:56;18.30;99.90
17956;DHT22;27666;51.498;11.966;2023-07-31T05:41:42;18.30;99.90
17956;DHT22;27666;51.498;11.966;2023-07-31T05:44:31;18.20;99.90
17956;DHT22;27666;51.498;11.966;2023-07-31T05:47:18;18.30;99.90
17956;DHT22;27666;51.498;11.966;2023-07-31T05:50:05;18.30;99.90
17956;DHT22;27666;51.498;11.966;2023-07-31T05:52:51;18.30;99.90
17956;DHT22;27666;51.498;11.966;2023-07-31T05:55:39;18.20;99.90
17956;DHT22;27666;51.498;11.966;2023-07-31T05:58:26;18.20;99.90
17956;DHT22;27666;51.498;11.966;2023-07-31T06:01:12;18.20;99.90
17956;DHT22;27666;51.498;11.966;2023-07-31T06:03:59;18.30;99.90
17956;DHT22;27666;51.498;11.966;2023-07-31T06:06:47;18.30;99.90
17956;DHT22;27666;51.498;11.966;2023-07-31T06:09:33;18.40;99.90
17956;DHT22;27666;51.498;11.966;2023-07-31T06:12:21;18.40;99.90
17956;DHT22;27666;51.498;11.966;2023-07-31T06:15:08;18.50;99.90
17956;DHT22;27666;51.498;11.966;2023-07-31T06:17:56;18.50;99.90
17956;DHT22;27666;51.498;11.966;2023-07-31T06:20:42;18.60;99.90
17956;DHT22;27666;51.498;11.966;2023-07-31T06:23:29;18.60;99.90
17956;DHT22;27666;51.498;11.966;2023-07-31T06:26:16;18.60;99.90
17956;DHT22;27666;51.498;11.966;2023-07-31T06:29:04;18.60;99.90
17956;DHT22;27666;51.498;11.966;2023-07-31T06:31:51;18.60;99.90
17956;DHT22;27666;51.498;11.966;2023-07-31T06:34:37;18.60;99.90
17956;DHT22;27666;51.498;11.966;2023-07-31T06:37:24;18.60;99.90
17956;DHT22;27666;51.498;11.966;2023-07-31T06:40:11;18.70;99.90
17956;DHT22;27666;51.498;11.966;2023-07-31T06:42:58;18.70;99.90
17956;DHT22;27666;51.498;11.966;2023-07-31T06:45:46;18.70;99.90
17956;DHT22;27666;51.498;11.966;2023-07-31T06:48:35;18.60;99.90
17956;DHT22;27666;51.498;11.966;2023-07-31T06:51:22;18.70;99.90
17956;DHT22;27666;51.498;11.966;2023-07-31T06:54:10;18.70;99.90
17956;DHT22;27666;51.498;11.966;2023-07-31T06:56:57;18.80;99.90
17956;DHT22;27666;51.498;11.966;2023-07-31T06:59:44;18.80;99.90
17956;DHT22;27666;51.498;11.966;2023-07-31T07:02:32;18.90;99.90
17956;DHT22;27666;51.498;11.966;2023-07-31T07:05:18;19.00;99.90
17956;DHT22;27666;51.498;11.966;2023-07-31T07:08:05;19.10;99.90
17956;DHT22;27666;51.498;11.966;2023-07-31T07:10:51;19.10;99.90
17956;DHT22;27666;51.498;11.966;2023-07-31T07:13:38;19.20;99.90
17956;DHT22;27666;51.498;11.966;2023-07-31T07:16:24;19.30;99.90
17956;DHT22;27666;51.498;11.966;2023-07-31T07:19:12;19.50;99.90
17956;DHT22;27666;51.498;11.966;2023-07-31T07:21:58;19.50;99.90
17956;DHT22;27666;51.498;11.966;2023-07-31T07:24:47;19.70;99.90
17956;DHT22;27666;51.498;11.966;2023-07-31T07:27:34;19.70;99.90
17956;DHT22;27666;51.498;11.966;2023-07-31T07:30:20;19.80;99.90
17956;DHT22;27666;51.498;11.966;2023-07-31T07:33:08;19.80;99.90
17956;DHT22;27666;51.498;11.966;2023-07-31T07:36:00;19.80;99.90
17956;DHT22;27666;51.498;11.966;2023-07-31T07:38:46;19.80;99.90
17956;DHT22;27666;51.498;11.966;2023-07-31T07:41:33;19.90;99.90
17956;DHT22;27666;51.498;11.966;2023-07-31T07:44:19;19.90;99.90
17956;DHT22;27666;51.498;11.966;2023-07-31T07:47:05;19.90;99.90
17956;DHT22;27666;51.498;11.966;2023-07-31T07:49:53;19.90;99.90
17956;DHT22;27666;51.498;11.966;2023-07-31T07:52:41;19.90;99.90
17956;DHT22;27666;51.498;11.966;2023-07-31T07:55:27;19.90;99.90
17956;DHT22;27666;51.498;11.966;2023-07-31T07:58:14;19.80;99.90
17956;DHT22;27666;51.498;11.966;2023-07-31T08:01:01;19.80;99.90
17956;DHT22;27666;51.498;11.966;2023-07-31T08:03:48;19.90;99.90
17956;DHT22;27666;51.498;11.966;2023-07-31T08:06:34;20.00;99.90
17956;DHT22;27666;51.498;11.966;2023-07-31T08:09:23;20.00;99.90
17956;DHT22;27666;51.498;11.966;2023-07-31T08:12:09;20.10;99.90
17956;DHT22;27666;51.498;11.966;2023-07-31T08:14:55;20.10;99.90
17956;DHT22;27666;51.498;11.966;2023-07-31T08:17:42;20.10;99.90
17956;DHT22;27666;51.498;11.966;2023-07-31T08:20:28;20.20;99.90
17956;DHT22;27666;51.498;11.966;2023-07-31T08:23:18;20.30;99.90
17956;DHT22;27666;51.498;11.966;2023-07-31T08:26:06;20.30;99.90
17956;DHT22;27666;51.498;11.966;2023-07-31T08:28:52;20.40;99.90
17956;DHT22;27666;51.498;11.966;2023-07-31T08:31:39;20.60;99.90
17956;DHT22;27666;51.498;11.966;2023-07-31T08:34:25;20.90;99.90
17956;DHT22;27666;51.498;11.966;2023-07-31T08:37:15;21.10;99.90
17956;DHT22;27666;51.498;11.966;2023-07-31T08:40:02;21.10;99.90
17956;DHT22;27666;51.498;11.966;2023-07-31T08:42:53;21.20;99.90
17956;DHT22;27666;51.498;11.966;2023-07-31T08:45:43;21.20;99.90
17956;DHT22;27666;51.498;11.966;2023-07-31T08:48:31;21.20;99.90
17956;DHT22;27666;51.498;11.966;2023-07-31T08:51:18;21.30;99.90
17956;DHT22;27666;51.498;11.966;2023-07-31T08:54:05;21.40;99.90
17956;DHT22;27666;51.498;11.966;2023-07-31T08:56:53;21.30;99.90
17956;DHT22;27666;51.498;11.966;2023-07-31T08:59:42;21.10;99.90
17956;DHT22;27666;51.498;11.966;2023-07-31T09:02:35;20.90;99.90
17956;DHT22;27666;51.498;11.966;2023-07-31T09:05:26;20.80;99.90
17956;DHT22;27666;51.498;11.966;2023-07-31T09:08:19;20.60;99.90
17956;DHT22;27666;51.498;11.966;2023-07-31T09:11:06;20.40;99.90
17956;DHT22;27666;51.498;11.966;2023-07-31T09:13:52;20.20;99.90
17956;DHT22;27666;51.498;11.966;2023-07-31T09:16:53;20.10;99.90
17956;DHT22;27666;51.498;11.966;2023-07-31T09:19:40;20.10;99.90
17956;DHT22;27666;51.498;11.966;2023-07-31T09:22:32;20.10;99.90
17956;DHT22;27666;51.498;11.966;2023-07-31T09:25:22;20.10;99.90
17956;DHT22;27666;51.498;11.966;2023-07-31T09:28:10;20.10;99.90
17956;DHT22;27666;51.498;11.966;2023-07-31T09:30:57;20.10;99.90
17956;DHT22;27666;51.498;11.966;2023-07-31T09:33:55;20.30;99.90
17956;DHT22;27666;51.498;11.966;2023-07-31T09:36:43;20.40;99.90
17956;DHT22;27666;51.498;11.966;2023-07-31T09:39:29;20.40;99.90
17956;DHT22;27666;51.498;11.966;2023-07-31T09:42:25;20.40;99.90
17956;DHT22;27666;51.498;11.966;2023-07-31T09:45:13;20.50;99.90
17956;DHT22;27666;51.498;11.966;2023-07-31T09:48:07;20.70;99.90
17956;DHT22;27666;51.498;11.966;2023-07-31T09:50:56;20.90;99.90
17956;DHT22;27666;51.498;11.966;2023-07-31T09:53:50;21.20;99.90
17956;DHT22;27666;51.498;11.966;2023-07-31T09:56:40;21.30;99.90
17956;DHT22;27666;51.498;11.966;2023-07-31T09:59:27;21.50;99.90
17956;DHT22;27666;51.498;11.966;2023-07-31T10:05:09;22.00;99.90
17956;DHT22;27666;51.498;11.966;2023-07-31T10:07:59;21.90;99.90
17956;DHT22;27666;51.498;11.966;2023-07-31T10:10:46;21.90;99.90
17956;DHT22;27666;51.498;11.966;2023-07-31T10:13:33;21.80;99.90
17956;DHT22;27666;51.498;11.966;2023-07-31T10:16:20;21.70;99.90
17956;DHT22;27666;51.498;11.966;2023-07-31T10:19:08;21.70;99.90
17956;DHT22;27666;51.498;11.966;2023-07-31T10:21:55;21.70;99.90
17956;DHT22;27666;51.498;11.966;2023-07-31T10:24:46;21.90;99.90
17956;DHT22;27666;51.498;11.966;2023-07-31T10:27:34;22.00;99.90
17956;DHT22;27666;51.498;11.966;2023-07-31T10:30:26;22.30;99.90
17956;DHT22;27666;51.498;11.966;2023-07-31T10:33:13;22.50;99.90
17956;DHT22;27666;51.498;11.966;2023-07-31T10:36:13;22.60;99.90
17956;DHT22;27666;51.498;11.966;2023-07-31T10:39:04;22.60;99.90
17956;DHT22;27666;51.498;11.966;2023-07-31T10:41:52;22.70;99.90
17956;DHT22;27666;51.498;11.966;2023-07-31T10:44:43;22.90;99.90
17956;DHT22;27666;51.498;11.966;2023-07-31T10:47:30;23.10;99.90
17956;DHT22;27666;51.498;11.966;2023-07-31T10:50:18;23.00;99.90
17956;DHT22;27666;51.498;11.966;2023-07-31T10:53:05;23.10;99.90
17956;DHT22;27666;51.498;11.966;2023-07-31T10:55:58;23.20;99.90
17956;DHT22;27666;51.498;11.966;2023-07-31T10:58:46;23.40;99.90
17956;DHT22;27666;51.498;11.966;2023-07-31T11:01:53;23.50;99.90
17956;DHT22;27666;51.498;11.966;2023-07-31T11:04:42;23.50;99.90
17956;DHT22;27666;51.498;11.966;2023-07-31T11:07:46;23.50;99.90
17956;DHT22;27666;51.498;11.966;2023-07-31T11:10:33;23.70;99.90
17956;DHT22;27666;51.498;11.966;2023-07-31T11:13:20;23.90;99.90
17956;DHT22;27666;51.498;11.966;2023-07-31T11:16:08;23.90;99.90
17956;DHT22;27666;51.498;11.966;2023-07-31T11:18:54;23.90;99.90
17956;DHT22;27666;51.498;11.966;2023-07-31T11:21:42;23.80;99.90
17956;DHT22;27666;51.498;11.966;2023-07-31T11:24:28;23.70;99.90
17956;DHT22;27666;51.498;11.966;2023-07-31T11:27:15;23.70;99.90
17956;DHT22;27666;51.498;11.966;2023-07-31T11:30:02;23.60;99.90
17956;DHT22;27666;51.498;11.966;2023-07-31T11:32:51;23.30;99.90
17956;DHT22;27666;51.498;11.966;2023-07-31T11:35:42;23.30;99.90
17956;DHT22;27666;51.498;11.966;2023-07-31T11:38:31;23.40;99.90
17956;DHT22;27666;51.498;11.966;2023-07-31T11:41:19;23.40;99.90
17956;DHT22;27666;51.498;11.966;2023-07-31T11:44:06;23.40;99.90
17956;DHT22;27666;51.498;11.966;2023-07-31T11:47:12;23.40;99.90
17956;DHT22;27666;51.498;11.966;2023-07-31T11:50:00;23.20;99.90
17956;DHT22;27666;51.498;11.966;2023-07-31T11:52:48;23.20;99.90
17956;DHT22;27666;51.498;11.966;2023-07-31T11:55:36;23.10;99.90
17956;DHT22;27666;51.498;11.966;2023-07-31T11:58:23;23.10;99.90
17956;DHT22;27666;51.498;11.966;2023-07-31T12:01:10;23.20;99.90
17956;DHT22;27666;51.498;11.966;2023-07-31T12:03:57;23.20;99.90
17956;DHT22;27666;51.498;11.966;2023-07-31T12:06:45;23.20;99.90
17956;DHT22;27666;51.498;11.966;2023-07-31T12:09:32;23.30;99.90
17956;DHT22;27666;51.498;11.966;2023-07-31T12:12:20;23.40;99.90
17956;DHT22;27666;51.498;11.966;2023-07-31T12:15:14;23.50;99.90
17956;DHT22;27666;51.498;11.966;2023-07-31T12:18:04;23.70;99.90
17956;DHT22;27666;51.498;11.966;2023-07-31T12:20:54;23.70;99.90
17956;DHT22;27666;51.498;11.966;2023-07-31T12:23:44;23.90;99.90
17956;DHT22;27666;51.498;11.966;2023-07-31T12:26:34;24.10;99.90
17956;DHT22;27666;51.498;11.966;2023-07-31T12:29:20;24.40;99.90
17956;DHT22;27666;51.498;11.966;2023-07-31T12:32:19;24.40;99.90
17956;DHT22;27666;51.498;11.966;2023-07-31T12:35:07;24.50;99.90
17956;DHT22;27666;51.498;11.966;2023-07-31T12:37:54;24.60;99.90
17956;DHT22;27666;51.498;11.966;2023-07-31T12:40:43;24.40;99.90
17956;DHT22;27666;51.498;11.966;2023-07-31T12:43:29;24.40;99.90
17956;DHT22;27666;51.498;11.966;2023-07-31T12:46:16;24.50;99.90
17956;DHT22;27666;51.498;11.966;2023-07-31T12:49:03;24.60;99.90
17956;DHT22;27666;51.498;11.966;2023-07-31T12:51:50;24.50;99.90
17956;DHT22;27666;51.498;11.966;2023-07-31T12:54:36;24.50;99.90
17956;DHT22;27666;51.498;11.966;2023-07-31T12:57:24;24.50;99.90
17956;DHT22;27666;51.498;11.966;2023-07-31T13:00:12;24.40;99.90
17956;DHT22;27666;51.498;11.966;2023-07-31T13:02:59;24.30;99.90
17956;DHT22;27666;51.498;11.966;2023-07-31T13:05:45;24.30;99.90
17956;DHT22;27666;51.498;11.966;2023-07-31T13:08:32;24.30;99.90
17956;DHT22;27666;51.498;11.966;2023-07-31T13:11:18;24.40;99.90
17956;DHT22;27666;51.498;11.966;2023-07-31T13:14:06;24.70;99.90
17956;DHT22;27666;51.498;11.966;2023-07-31T13:16:53;24.80;99.90
17956;DHT22;27666;51.498;11.966;2023-07-31T13:19:39;24.70;99.90
17956;DHT22;27666;51.498;11.966;2023-07-31T13:22:26;24.50;99.90
17956;DHT22;27666;51.498;11.966;2023-07-31T13:25:13;24.30;99.90
17956;DHT22;27666;51.498;11.966;2023-07-31T13:27:59;24.20;99.90
17956;DHT22;27666;51.498;11.966;2023-07-31T13:30:49;24.00;99.90
17956;DHT22;27666;51.498;11.966;2023-07-31T13:33:35;23.90;99.90
17956;DHT22;27666;51.498;11.966;2023-07-31T13:36:24;23.80;99.90
17956;DHT22;27666;51.498;11.966;2023-07-31T13:39:11;23.70;99.90
17956;DHT22;27666;51.498;11.966;2023-07-31T13:41:58;23.70;99.90
17956;DHT22;27666;51.498;11.966;2023-07-31T13:44:44;23.80;99.90
17956;DHT22;27666;51.498;11.966;2023-07-31T13:47:32;23.80;99.90
17956;DHT22;27666;51.498;11.966;2023-07-31T13:50:20;23.90;99.90
17956;DHT22;27666;51.498;11.966;2023-07-31T13:53:07;23.80;99.90
17956;DHT22;27666;51.498;11.966;2023-07-31T13:55:54;23.90;99.90
17956;DHT22;27666;51.498;11.966;2023-07-31T13:58:40;24.00;99.90
17956;DHT22;27666;51.498;11.966;2023-07-31T14:01:27;23.90;99.90
17956;DHT22;27666;51.498;11.966;2023-07-31T14:04:15;24.00;99.90
17956;DHT22;27666;51.498;11.966;2023-07-31T14:07:03;24.10;99.90
17956;DHT22;27666;51.498;11.966;2023-07-31T14:09:49;24.30;99.90
17956;DHT22;27666;51.498;11.966;2023-07-31T14:12:36;24.30;99.90
17956;DHT22;27666;51.498;11.966;2023-07-31T14:15:27;24.20;99.90
17956;DHT22;27666;51.498;11.966;2023-07-31T14:18:14;24.10;99.90
17956;DHT22;27666;51.498;11.966;2023-07-31T14:21:02;23.90;99.90
17956;DHT22;27666;51.498;11.966;2023-07-31T14:23:48;23.80;99.90
17956;DHT22;27666;51.498;11.966;2023-07-31T14:26:35;23.80;99.90
17956;DHT22;27666;51.498;11.966;2023-07-31T14:29:22;23.70;99.90
17956;DHT22;27666;51.498;11.966;2023-07-31T14:32:10;23.70;99.90
17956;DHT22;27666;51.498;11.966;2023-07-31T14:34:57;23.40;99.90
17956;DHT22;27666;51.498;11.966;2023-07-31T14:37:45;23.30;99.90
17956;DHT22;27666;51.498;11.966;2023-07-31T14:40:32;23.10;99.90
17956;DHT22;27666;51.498;11.966;2023-07-31T14:43:18;23.10;99.90
17956;DHT22;27666;51.498;11.966;2023-07-31T14:46:08;23.20;99.90
17956;DHT22;27666;51.498;11.966;2023-07-31T14:48:55;23.30;99.90
17956;DHT22;27666;51.498;11.966;2023-07-31T14:51:41;23.20;99.90
17956;DHT22;27666;51.498;11.966;2023-07-31T14:54:29;23.20;99.90
17956;DHT22;27666;51.498;11.966;2023-07-31T14:57:16;23.10;99.90
17956;DHT22;27666;51.498;11.966;2023-07-31T15:00:03;23.20;99.90
17956;DHT22;27666;51.498;11.966;2023-07-31T15:02:52;23.20;99.90
17956;DHT22;27666;51.498;11.966;2023-07-31T15:05:38;23.10;99.90
17956;DHT22;27666;51.498;11.966;2023-07-31T15:08:25;23.00;99.90
17956;DHT22;27666;51.498;11.966;2023-07-31T15:11:13;23.10;99.90
17956;DHT22;27666;51.498;11.966;2023-07-31T15:14:00;23.20;99.90
17956;DHT22;27666;51.498;11.966;2023-07-31T15:16:48;23.20;99.90
17956;DHT22;27666;51.498;11.966;2023-07-31T15:19:34;23.20;99.90
17956;DHT22;27666;51.498;11.966;2023-07-31T15:22:21;23.10;99.90
17956;DHT22;27666;51.498;11.966;2023-07-31T15:25:08;22.90;99.90
17956;DHT22;27666;51.498;11.966;2023-07-31T15:27:56;22.90;99.90
17956;DHT22;27666;51.498;11.966;2023-07-31T15:30:43;22.80;99.90
17956;DHT22;27666;51.498;11.966;2023-07-31T15:33:30;22.70;99.90
17956;DHT22;27666;51.498;11.966;2023-07-31T15:36:16;22.70;99.90
17956;DHT22;27666;51.498;11.966;2023-07-31T15:39:03;22.70;99.90
17956;DHT22;27666;51.498;11.966;2023-07-31T15:41:50;22.70;99.90
17956;DHT22;27666;51.498;11.966;2023-07-31T15:44:37;22.70;99.90
17956;DHT22;27666;51.498;11.966;2023-07-31T15:47:24;22.60;99.90
17956;DHT22;27666;51.498;11.966;2023-07-31T15:50:10;22.70;99.90
17956;DHT22;27666;51.498;11.966;2023-07-31T15:52:57;22.70;99.90
17956;DHT22;27666;51.498;11.966;2023-07-31T15:55:44;22.80;99.90
17956;DHT22;27666;51.498;11.966;2023-07-31T15:58:30;22.80;99.90
17956;DHT22;27666;51.498;11.966;2023-07-31T16:01:18;22.90;99.90
17956;DHT22;27666;51.498;11.966;2023-07-31T16:04:05;23.00;99.90
17956;DHT22;27666;51.498;11.966;2023-07-31T16:06:51;23.00;99.90
17956;DHT22;27666;51.498;11.966;2023-07-31T16:09:38;23.10;99.90
17956;DHT22;27666;51.498;11.966;2023-07-31T16:12:25;23.20;99.90
17956;DHT22;27666;51.498;11.966;2023-07-31T16:15:12;23.20;99.90
17956;DHT22;27666;51.498;11.966;2023-07-31T16:18:00;23.20;99.90
17956;DHT22;27666;51.498;11.966;2023-07-31T16:20:46;23.30;99.90
17956;DHT22;27666;51.498;11.966;2023-07-31T16:23:33;23.30;99.90
17956;DHT22;27666;51.498;11.966;2023-07-31T16:26:20;23.20;99.90
17956;DHT22;27666;51.498;11.966;2023-07-31T16:29:06;23.30;99.90
17956;DHT22;27666;51.498;11.966;2023-07-31T16:31:52;23.20;99.90
17956;DHT22;27666;51.498;11.966;2023-07-31T16:34:44;23.10;99.90
17956;DHT22;27666;51.498;11.966;2023-07-31T16:37:30;23.10;99.90
17956;DHT22;27666;51.498;11.966;2023-07-31T16:40:17;23.10;99.90
17956;DHT22;27666;51.498;11.966;2023-07-31T16:43:04;23.10;99.90
17956;DHT22;27666;51.498;11.966;2023-07-31T16:45:52;23.10;99.90
17956;DHT22;27666;51.498;11.966;2023-07-31T16:48:38;23.10;99.90
17956;DHT22;27666;51.498;11.966;2023-07-31T16:51:26;23.10;99.90
17956;DHT22;27666;51.498;11.966;2023-07-31T16:54:13;23.10;99.90
17956;DHT22;27666;51.498;11.966;2023-07-31T16:56:59;23.10;99.90
17956;DHT22;27666;51.498;11.966;2023-07-31T16:59:46;23.10;99.90
17956;DHT22;27666;51.498;11.966;2023-07-31T17:02:33;23.00;99.90
17956;DHT22;27666;51.498;11.966;2023-07-31T17:05:19;23.00;99.90
17956;DHT22;27666;51.498;11.966;2023-07-31T17:08:07;23.00;99.90
17956;DHT22;27666;51.498;11.966;2023-07-31T17:10:54;22.90;99.90
17956;DHT22;27666;51.498;11.966;2023-07-31T17:13:40;22.90;99.90
17956;DHT22;27666;51.498;11.966;2023-07-31T17:16:26;22.80;99.90
17956;DHT22;27666;51.498;11.966;2023-07-31T17:19:14;22.80;99.90
17956;DHT22;27666;51.498;11.966;2023-07-31T17:22:01;22.80;99.90
17956;DHT22;27666;51.498;11.966;2023-07-31T17:24:51;22.70;99.90